sensor_id;sensor_type;location;lat;lon;timestamp;temperature;humidity
4757;DHT22;2392;52.578;13.426;2023-05-23T00:02:13;18.60;79.50
4757;DHT22;2392;52.578;13.426;2023-05-23T00:04:41;18.60;79.70
4757;DHT22;2392;52.578;13.426;2023-05-23T00:07:09;18.60;79.80
4757;DHT22;2392;52.578;13.426;2023-05-23T00:09:36;18.60;79.60
4757;DHT22;2392;52.578;13.426;2023-05-23T00:12:03;18.60;79.60
4757;DHT22;2392;52.578;13.426;2023-05-23T00:14:32;18.60;79.60
4757;DHT22;2392;52.578;13.426;2023-05-23T00:17:00;18.50;79.60
4757;DHT22;2392;52.578;13.426;2023-05-23T00:19:27;18.50;79.80
4757;DHT22;2392;52.578;13.426;2023-05-23T00:21:54;18.50;80.20
4757;DHT22;2392;52.578;13.426;2023-05-23T00:24:24;18.50;80.50
4757;DHT22;2392;52.578;13.426;2023-05-23T00:26:51;18.50;80.30
4757;DHT22;2392;52.578;13.426;2023-05-23T00:29:19;18.40;80.30
4757;DHT22;2392;52.578;13.426;2023-05-23T00:31:47;18.40;80.30
4757;DHT22;2392;52.578;13.426;2023-05-23T00:34:14;18.40;80.40
4757;DHT22;2392;52.578;13.426;2023-05-23T00:36:42;18.40;80.50
4757;DHT22;2392;52.578;13.426;2023-05-23T00:39:13;18.40;80.60
4757;DHT22;2392;52.578;13.426;2023-05-23T00:41:44;18.40;80.70
4757;DHT22;2392;52.578;13.426;2023-05-23T00:44:11;18.30;80.60
4757;DHT22;2392;52.578;13.426;2023-05-23T00:46:39;18.40;80.60
4757;DHT22;2392;52.578;13.426;2023-05-23T00:49:07;18.30;80.40
4757;DHT22;2392;52.578;13.426;2023-05-23T00:51:34;18.30;80.50
4757;DHT22;2392;52.578;13.426;2023-05-23T00:54:03;18.30;80.60
4757;DHT22;2392;52.578;13.426;2023-05-23T00:56:31;18.30;80.60
4757;DHT22;2392;52.578;13.426;2023-05-23T00:58:59;18.30;80.70
4757;DHT22;2392;52.578;13.426;2023-05-23T01:01:26;18.30;80.90
4757;DHT22;2392;52.578;13.426;2023-05-23T01:03:53;18.30;80.70
4757;DHT22;2392;52.578;13.426;2023-05-23T01:06:22;18.20;80.80
4757;DHT22;2392;52.578;13.426;2023-05-23T01:08:49;18.20;80.70
4757;DHT22;2392;52.578;13.426;2023-05-23T01:11:22;18.20;80.60
4757;DHT22;2392;52.578;13.426;2023-05-23T01:13:57;18.20;80.80
4757;DHT22;2392;52.578;13.426;2023-05-23T01:16:31;18.20;80.70
4757;DHT22;2392;52.578;13.426;2023-05-23T01:19:11;18.10;80.70
4757;DHT22;2392;52.578;13.426;2023-05-23T01:21:52;18.10;80.70
4757;DHT22;2392;52.578;13.426;2023-05-23T01:24:40;18.10;80.60
4757;DHT22;2392;52.578;13.426;2023-05-23T01:27:21;18.10;80.70
4757;DHT22;2392;52.578;13.426;2023-05-23T01:29:53;18.10;80.60
4757;DHT22;2392;52.578;13.426;2023-05-23T01:32:23;18.10;80.80
4757;DHT22;2392;52.578;13.426;2023-05-23T01:34:52;18.10;80.80
4757;DHT22;2392;52.578;13.426;2023-05-23T01:37:19;18.10;81.10
4757;DHT22;2392;52.578;13.426;2023-05-23T01:39:47;18.10;80.90
4757;DHT22;2392;52.578;13.426;2023-05-23T01:42:14;18.10;81.20
4757;DHT22;2392;52.578;13.426;2023-05-23T01:44:41;18.10;81.40
4757;DHT22;2392;52.578;13.426;2023-05-23T01:47:10;18.10;81.70
4757;DHT22;2392;52.578;13.426;2023-05-23T01:49:39;18.10;81.90
4757;DHT22;2392;52.578;13.426;2023-05-23T01:52:07;18.10;82.30
4757;DHT22;2392;52.578;13.426;2023-05-23T01:54:37;18.10;82.30
4757;DHT22;2392;52.578;13.426;2023-05-23T01:57:07;18.00;82.50
4757;DHT22;2392;52.578;13.426;2023-05-23T01:59:34;18.00;82.50
4757;DHT22;2392;52.578;13.426;2023-05-23T02:02:03;18.00;82.70
4757;DHT22;2392;52.578;13.426;2023-05-23T02:04:32;17.90;82.70
4757;DHT22;2392;52.578;13.426;2023-05-23T02:06:59;17.90;82.90
4757;DHT22;2392;52.578;13.426;2023-05-23T02:09:26;17.90;83.00
4757;DHT22;2392;52.578;13.426;2023-05-23T02:11:53;17.80;82.90
4757;DHT22;2392;52.578;13.426;2023-05-23T02:14:21;17.80;82.90
4757;DHT22;2392;52.578;13.426;2023-05-23T02:16:48;17.70;83.10
4757;DHT22;2392;52.578;13.426;2023-05-23T02:19:17;17.70;83.30
4757;DHT22;2392;52.578;13.426;2023-05-23T02:21:46;17.70;83.60
4757;DHT22;2392;52.578;13.426;2023-05-23T02:24:13;17.70;83.90
4757;DHT22;2392;52.578;13.426;2023-05-23T02:26:40;17.60;83.70
4757;DHT22;2392;52.578;13.426;2023-05-23T02:29:07;17.60;83.70
4757;DHT22;2392;52.578;13.426;2023-05-23T02:31:35;17.60;83.90
4757;DHT22;2392;52.578;13.426;2023-05-23T02:34:02;17.60;84.20
4757;DHT22;2392;52.578;13.426;2023-05-23T02:36:29;17.50;84.10
4757;DHT22;2392;52.578;13.426;2023-05-23T02:38:59;17.50;84.30
4757;DHT22;2392;52.578;13.426;2023-05-23T02:41:27;17.50;84.30
4757;DHT22;2392;52.578;13.426;2023-05-23T02:43:54;17.50;84.40
4757;DHT22;2392;52.578;13.426;2023-05-23T02:46:23;17.50;84.70
4757;DHT22;2392;52.578;13.426;2023-05-23T02:48:50;17.40;84.40
4757;DHT22;2392;52.578;13.426;2023-05-23T02:51:17;17.40;84.60
4757;DHT22;2392;52.578;13.426;2023-05-23T02:53:45;17.40;84.80
4757;DHT22;2392;52.578;13.426;2023-05-23T02:56:13;17.40;85.60
4757;DHT22;2392;52.578;13.426;2023-05-23T02:58:41;17.40;85.10
4757;DHT22;2392;52.578;13.426;2023-05-23T03:01:08;17.40;85.10
4757;DHT22;2392;52.578;13.426;2023-05-23T03:03:35;17.40;85.30
4757;DHT22;2392;52.578;13.426;2023-05-23T03:06:02;17.40;85.30
4757;DHT22;2392;52.578;13.426;2023-05-23T03:08:31;17.40;85.20
4757;DHT22;2392;52.578;13.426;2023-05-23T03:10:58;17.40;85.80
4757;DHT22;2392;52.578;13.426;2023-05-23T03:13:27;17.40;85.10
4757;DHT22;2392;52.578;13.426;2023-05-23T03:15:54;17.40;85.30
4757;DHT22;2392;52.578;13.426;2023-05-23T03:18:21;17.40;85.30
4757;DHT22;2392;52.578;13.426;2023-05-23T03:20:49;17.40;85.80
4757;DHT22;2392;52.578;13.426;2023-05-23T03:23:16;17.40;86.10
4757;DHT22;2392;52.578;13.426;2023-05-23T03:25:44;17.30;86.60
4757;DHT22;2392;52.578;13.426;2023-05-23T03:28:11;17.30;86.10
4757;DHT22;2392;52.578;13.426;2023-05-23T03:30:39;17.30;86.10
4757;DHT22;2392;52.578;13.426;2023-05-23T03:33:06;17.30;86.40
4757;DHT22;2392;52.578;13.426;2023-05-23T03:35:33;17.30;87.60
4757;DHT22;2392;52.578;13.426;2023-05-23T03:38:01;17.30;87.50
4757;DHT22;2392;52.578;13.426;2023-05-23T03:40:28;17.20;87.50
4757;DHT22;2392;52.578;13.426;2023-05-23T03:43:02;17.20;87.80
4757;DHT22;2392;52.578;13.426;2023-05-23T03:45:30;17.20;88.00
4757;DHT22;2392;52.578;13.426;2023-05-23T03:47:59;17.30;88.10
4757;DHT22;2392;52.578;13.426;2023-05-23T03:50:27;17.30;87.80
4757;DHT22;2392;52.578;13.426;2023-05-23T03:52:54;17.30;88.00
4757;DHT22;2392;52.578;13.426;2023-05-23T03:55:21;17.30;88.00
4757;DHT22;2392;52.578;13.426;2023-05-23T03:57:49;17.30;87.80
4757;DHT22;2392;52.578;13.426;2023-05-23T04:00:18;17.30;87.60
4757;DHT22;2392;52.578;13.426;2023-05-23T04:02:49;17.30;87.60
4757;DHT22;2392;52.578;13.426;2023-05-23T04:05:19;17.30;87.50
4757;DHT22;2392;52.578;13.426;2023-05-23T04:07:48;17.30;87.30
4757;DHT22;2392;52.578;13.426;2023-05-23T04:10:16;17.30;87.40
4757;DHT22;2392;52.578;13.426;2023-05-23T04:12:45;17.40;87.30
4757;DHT22;2392;52.578;13.426;2023-05-23T04:15:14;17.40;87.60
4757;DHT22;2392;52.578;13.426;2023-05-23T04:17:54;17.40;87.30
4757;DHT22;2392;52.578;13.426;2023-05-23T04:20:23;17.40;87.10
4757;DHT22;2392;52.578;13.426;2023-05-23T04:22:50;17.40;87.70
4757;DHT22;2392;52.578;13.426;2023-05-23T04:25:18;17.40;87.00
4757;DHT22;2392;52.578;13.426;2023-05-23T04:27:56;17.40;87.10
4757;DHT22;2392;52.578;13.426;2023-05-23T04:30:23;17.40;87.10
4757;DHT22;2392;52.578;13.426;2023-05-23T04:32:50;17.50;87.40
4757;DHT22;2392;52.578;13.426;2023-05-23T04:35:18;17.50;88.00
4757;DHT22;2392;52.578;13.426;2023-05-23T04:37:47;17.40;87.90
4757;DHT22;2392;52.578;13.426;2023-05-23T04:40:14;17.40;88.70
4757;DHT22;2392;52.578;13.426;2023-05-23T04:43:01;17.40;88.70
4757;DHT22;2392;52.578;13.426;2023-05-23T04:45:37;17.40;90.00
4757;DHT22;2392;52.578;13.426;2023-05-23T04:48:24;17.40;90.20
4757;DHT22;2392;52.578;13.426;2023-05-23T04:50:53;17.30;90.60
4757;DHT22;2392;52.578;13.426;2023-05-23T04:53:22;17.30;90.60
4757;DHT22;2392;52.578;13.426;2023-05-23T04:55:49;17.30;90.60
4757;DHT22;2392;52.578;13.426;2023-05-23T04:58:17;17.30;90.40
4757;DHT22;2392;52.578;13.426;2023-05-23T05:00:45;17.30;90.20
4757;DHT22;2392;52.578;13.426;2023-05-23T05:03:14;17.20;90.20
4757;DHT22;2392;52.578;13.426;2023-05-23T05:05:44;17.20;90.40
4757;DHT22;2392;52.578;13.426;2023-05-23T05:08:11;17.20;90.50
4757;DHT22;2392;52.578;13.426;2023-05-23T05:10:41;17.10;90.20
4757;DHT22;2392;52.578;13.426;2023-05-23T05:13:09;17.10;90.40
4757;DHT22;2392;52.578;13.426;2023-05-23T05:15:47;17.10;90.40
4757;DHT22;2392;52.578;13.426;2023-05-23T05:18:14;17.10;90.40
4757;DHT22;2392;52.578;13.426;2023-05-23T05:20:41;17.10;90.40
4757;DHT22;2392;52.578;13.426;2023-05-23T05:23:08;17.20;90.40
4757;DHT22;2392;52.578;13.426;2023-05-23T05:25:36;17.20;90.40
4757;DHT22;2392;52.578;13.426;2023-05-23T05:28:07;17.20;90.50
4757;DHT22;2392;52.578;13.426;2023-05-23T05:30:42;17.20;90.40
4757;DHT22;2392;52.578;13.426;2023-05-23T05:33:11;17.20;90.40
4757;DHT22;2392;52.578;13.426;2023-05-23T05:35:38;17.30;90.50
4757;DHT22;2392;52.578;13.426;2023-05-23T05:38:06;17.30;90.60
4757;DHT22;2392;52.578;13.426;2023-05-23T05:40:36;17.30;90.50
4757;DHT22;2392;52.578;13.426;2023-05-23T05:43:03;17.30;90.30
4757;DHT22;2392;52.578;13.426;2023-05-23T05:45:33;17.30;90.20
4757;DHT22;2392;52.578;13.426;2023-05-23T05:48:00;17.30;90.30
4757;DHT22;2392;52.578;13.426;2023-05-23T05:50:28;17.30;90.40
4757;DHT22;2392;52.578;13.426;2023-05-23T05:52:55;17.40;90.60
4757;DHT22;2392;52.578;13.426;2023-05-23T05:55:22;17.40;90.40
4757;DHT22;2392;52.578;13.426;2023-05-23T05:57:53;17.40;90.60
4757;DHT22;2392;52.578;13.426;2023-05-23T06:00:21;17.40;91.20
4757;DHT22;2392;52.578;13.426;2023-05-23T06:02:56;17.40;90.90
4757;DHT22;2392;52.578;13.426;2023-05-23T06:05:46;17.40;90.90
4757;DHT22;2392;52.578;13.426;2023-05-23T06:08:13;17.50;91.00
4757;DHT22;2392;52.578;13.426;2023-05-23T06:10:40;17.50;91.00
4757;DHT22;2392;52.578;13.426;2023-05-23T06:13:07;17.50;91.00
4757;DHT22;2392;52.578;13.426;2023-05-23T06:15:35;17.50;90.90
4757;DHT22;2392;52.578;13.426;2023-05-23T06:18:04;17.50;90.90
4757;DHT22;2392;52.578;13.426;2023-05-23T06:20:31;17.50;90.90
4757;DHT22;2392;52.578;13.426;2023-05-23T06:23:01;17.50;91.20
4757;DHT22;2392;52.578;13.426;2023-05-23T06:25:30;17.60;91.30
4757;DHT22;2392;52.578;13.426;2023-05-23T06:27:57;17.60;91.40
4757;DHT22;2392;52.578;13.426;2023-05-23T06:30:25;17.60;91.30
4757;DHT22;2392;52.578;13.426;2023-05-23T06:32:53;17.60;91.40
4757;DHT22;2392;52.578;13.426;2023-05-23T06:35:22;17.60;91.60
4757;DHT22;2392;52.578;13.426;2023-05-23T06:37:49;17.50;91.50
4757;DHT22;2392;52.578;13.426;2023-05-23T06:40:17;17.60;91.70
4757;DHT22;2392;52.578;13.426;2023-05-23T06:42:44;17.50;91.50
4757;DHT22;2392;52.578;13.426;2023-05-23T06:45:45;17.50;91.50
4757;DHT22;2392;52.578;13.426;2023-05-23T06:48:13;17.60;91.20
4757;DHT22;2392;52.578;13.426;2023-05-23T06:50:41;17.60;91.10
4757;DHT22;2392;52.578;13.426;2023-05-23T06:53:11;17.60;90.90
4757;DHT22;2392;52.578;13.426;2023-05-23T06:55:39;17.70;91.00
4757;DHT22;2392;52.578;13.426;2023-05-23T06:58:09;17.80;90.90
4757;DHT22;2392;52.578;13.426;2023-05-23T07:00:37;17.80;91.20
4757;DHT22;2392;52.578;13.426;2023-05-23T07:03:30;17.90;91.20
4757;DHT22;2392;52.578;13.426;2023-05-23T07:06:04;17.90;91.20
4757;DHT22;2392;52.578;13.426;2023-05-23T07:08:31;18.00;91.40
4757;DHT22;2392;52.578;13.426;2023-05-23T07:10:59;18.10;91.80
4757;DHT22;2392;52.578;13.426;2023-05-23T07:13:37;18.10;91.60
4757;DHT22;2392;52.578;13.426;2023-05-23T07:16:04;18.30;91.60
4757;DHT22;2392;52.578;13.426;2023-05-23T07:18:35;18.40;91.60
4757;DHT22;2392;52.578;13.426;2023-05-23T07:21:03;18.50;91.40
4757;DHT22;2392;52.578;13.426;2023-05-23T07:23:32;18.60;91.40
4757;DHT22;2392;52.578;13.426;2023-05-23T07:26:00;18.70;91.30
4757;DHT22;2392;52.578;13.426;2023-05-23T07:28:28;18.80;91.30
4757;DHT22;2392;52.578;13.426;2023-05-23T07:30:56;18.80;91.10
4757;DHT22;2392;52.578;13.426;2023-05-23T07:33:24;18.80;90.80
4757;DHT22;2392;52.578;13.426;2023-05-23T07:35:54;18.90;91.30
4757;DHT22;2392;52.578;13.426;2023-05-23T07:38:22;19.00;91.00
4757;DHT22;2392;52.578;13.426;2023-05-23T07:40:49;19.10;90.80
4757;DHT22;2392;52.578;13.426;2023-05-23T07:43:16;19.20;90.40
4757;DHT22;2392;52.578;13.426;2023-05-23T07:45:43;19.30;90.20
4757;DHT22;2392;52.578;13.426;2023-05-23T07:48:12;19.30;90.00
4757;DHT22;2392;52.578;13.426;2023-05-23T07:50:39;19.40;90.10
4757;DHT22;2392;52.578;13.426;2023-05-23T07:53:06;19.50;90.20
4757;DHT22;2392;52.578;13.426;2023-05-23T07:55:36;19.50;89.40
4757;DHT22;2392;52.578;13.426;2023-05-23T07:58:02;19.60;89.80
4757;DHT22;2392;52.578;13.426;2023-05-23T08:00:31;19.60;88.90
4757;DHT22;2392;52.578;13.426;2023-05-23T08:03:05;19.60;89.30
4757;DHT22;2392;52.578;13.426;2023-05-23T08:05:38;19.70;89.40
4757;DHT22;2392;52.578;13.426;2023-05-23T08:08:06;19.70;89.00
4757;DHT22;2392;52.578;13.426;2023-05-23T08:10:33;19.80;89.00
4757;DHT22;2392;52.578;13.426;2023-05-23T08:13:09;19.80;88.30
4757;DHT22;2392;52.578;13.426;2023-05-23T08:15:50;19.80;88.30
4757;DHT22;2392;52.578;13.426;2023-05-23T08:18:22;19.90;88.40
4757;DHT22;2392;52.578;13.426;2023-05-23T08:20:50;20.00;88.30
4757;DHT22;2392;52.578;13.426;2023-05-23T08:23:18;20.00;86.70
4757;DHT22;2392;52.578;13.426;2023-05-23T08:25:45;20.00;87.30
4757;DHT22;2392;52.578;13.426;2023-05-23T08:28:14;20.00;87.00
4757;DHT22;2392;52.578;13.426;2023-05-23T08:30:47;20.00;87.90
4757;DHT22;2392;52.578;13.426;2023-05-23T08:33:15;20.00;87.60
4757;DHT22;2392;52.578;13.426;2023-05-23T08:35:44;20.10;88.30
4757;DHT22;2392;52.578;13.426;2023-05-23T08:38:12;20.20;88.00
4757;DHT22;2392;52.578;13.426;2023-05-23T08:40:50;20.30;88.30
4757;DHT22;2392;52.578;13.426;2023-05-23T08:43:20;20.40;88.40
4757;DHT22;2392;52.578;13.426;2023-05-23T08:45:48;20.40;87.80
4757;DHT22;2392;52.578;13.426;2023-05-23T08:48:19;20.50;88.30
4757;DHT22;2392;52.578;13.426;2023-05-23T08:50:50;20.60;88.80
4757;DHT22;2392;52.578;13.426;2023-05-23T08:53:22;20.70;88.50
4757;DHT22;2392;52.578;13.426;2023-05-23T08:55:58;20.90;89.00
4757;DHT22;2392;52.578;13.426;2023-05-23T08:58:34;21.00;89.50
4757;DHT22;2392;52.578;13.426;2023-05-23T09:01:03;21.10;89.40
4757;DHT22;2392;52.578;13.426;2023-05-23T09:03:31;21.20;89.40
4757;DHT22;2392;52.578;13.426;2023-05-23T09:06:33;21.30;89.30
4757;DHT22;2392;52.578;13.426;2023-05-23T09:09:02;21.50;89.70
4757;DHT22;2392;52.578;13.426;2023-05-23T09:11:30;21.60;89.80
4757;DHT22;2392;52.578;13.426;2023-05-23T09:14:01;21.70;89.70
4757;DHT22;2392;52.578;13.426;2023-05-23T09:16:32;21.90;90.30
4757;DHT22;2392;52.578;13.426;2023-05-23T09:19:10;22.00;90.50
4757;DHT22;2392;52.578;13.426;2023-05-23T09:21:42;22.00;90.50
4757;DHT22;2392;52.578;13.426;2023-05-23T09:24:23;22.10;90.50
4757;DHT22;2392;52.578;13.426;2023-05-23T09:26:50;22.20;90.50
4757;DHT22;2392;52.578;13.426;2023-05-23T09:29:20;22.20;90.70
4757;DHT22;2392;52.578;13.426;2023-05-23T09:31:47;22.20;90.60
4757;DHT22;2392;52.578;13.426;2023-05-23T09:34:14;22.30;90.50
4757;DHT22;2392;52.578;13.426;2023-05-23T09:36:41;22.30;90.80
4757;DHT22;2392;52.578;13.426;2023-05-23T09:39:10;22.20;91.10
4757;DHT22;2392;52.578;13.426;2023-05-23T09:41:38;22.30;91.50
4757;DHT22;2392;52.578;13.426;2023-05-23T09:44:07;22.40;91.60
4757;DHT22;2392;52.578;13.426;2023-05-23T09:46:36;22.60;91.40
4757;DHT22;2392;52.578;13.426;2023-05-23T09:49:14;22.70;91.50
4757;DHT22;2392;52.578;13.426;2023-05-23T09:51:43;22.90;91.80
4757;DHT22;2392;52.578;13.426;2023-05-23T09:54:22;22.90;91.80
4757;DHT22;2392;52.578;13.426;2023-05-23T09:56:50;22.90;91.50
4757;DHT22;2392;52.578;13.426;2023-05-23T09:59:20;22.90;92.00
4757;DHT22;2392;52.578;13.426;2023-05-23T10:01:50;23.10;92.30
4757;DHT22;2392;52.578;13.426;2023-05-23T10:04:20;23.00;91.80
4757;DHT22;2392;52.578;13.426;2023-05-23T10:06:50;23.00;91.80
4757;DHT22;2392;52.578;13.426;2023-05-23T10:09:20;22.90;91.80
4757;DHT22;2392;52.578;13.426;2023-05-23T10:15:13;23.20;92.40
4757;DHT22;2392;52.578;13.426;2023-05-23T10:18:02;23.80;92.10
4757;DHT22;2392;52.578;13.426;2023-05-23T10:20:35;24.30;92.00
4757;DHT22;2392;52.578;13.426;2023-05-23T10:23:05;24.70;91.40
4757;DHT22;2392;52.578;13.426;2023-05-23T10:25:32;24.50;91.10
4757;DHT22;2392;52.578;13.426;2023-05-23T10:28:01;24.80;91.40
4757;DHT22;2392;52.578;13.426;2023-05-23T10:30:29;25.20;90.50
4757;DHT22;2392;52.578;13.426;2023-05-23T10:32:58;25.80;89.10
4757;DHT22;2392;52.578;13.426;2023-05-23T10:35:36;26.20;88.80
4757;DHT22;2392;52.578;13.426;2023-05-23T10:38:09;26.10;87.60
4757;DHT22;2392;52.578;13.426;2023-05-23T10:40:51;26.30;87.70
4757;DHT22;2392;52.578;13.426;2023-05-23T10:43:26;26.10;87.80
4757;DHT22;2392;52.578;13.426;2023-05-23T10:45:55;25.70;88.10
4757;DHT22;2392;52.578;13.426;2023-05-23T10:48:31;25.40;89.40
4757;DHT22;2392;52.578;13.426;2023-05-23T10:51:04;25.30;89.70
4757;DHT22;2392;52.578;13.426;2023-05-23T10:53:34;25.20;90.00
4757;DHT22;2392;52.578;13.426;2023-05-23T10:56:04;24.70;90.50
4757;DHT22;2392;52.578;13.426;2023-05-23T10:58:32;24.30;91.20
4757;DHT22;2392;52.578;13.426;2023-05-23T11:01:00;24.50;91.90
4757;DHT22;2392;52.578;13.426;2023-05-23T11:03:36;24.80;91.90
4757;DHT22;2392;52.578;13.426;2023-05-23T11:06:04;24.80;92.20
4757;DHT22;2392;52.578;13.426;2023-05-23T11:08:38;23.90;93.10
4757;DHT22;2392;52.578;13.426;2023-05-23T11:11:06;23.80;94.00
4757;DHT22;2392;52.578;13.426;2023-05-23T11:13:55;23.80;94.30
4757;DHT22;2392;52.578;13.426;2023-05-23T11:16:29;24.00;94.20
4757;DHT22;2392;52.578;13.426;2023-05-23T11:19:26;23.70;94.50
4757;DHT22;2392;52.578;13.426;2023-05-23T11:21:57;23.40;94.70
4757;DHT22;2392;52.578;13.426;2023-05-23T11:24:47;23.10;94.80
4757;DHT22;2392;52.578;13.426;2023-05-23T11:27:15;22.70;95.20
4757;DHT22;2392;52.578;13.426;2023-05-23T11:29:55;22.60;95.60
4757;DHT22;2392;52.578;13.426;2023-05-23T11:32:22;22.30;96.00
4757;DHT22;2392;52.578;13.426;2023-05-23T11:34:51;22.10;96.50
4757;DHT22;2392;52.578;13.426;2023-05-23T11:37:19;21.80;96.80
4757;DHT22;2392;52.578;13.426;2023-05-23T11:39:48;21.80;97.10
4757;DHT22;2392;52.578;13.426;2023-05-23T11:42:15;21.60;97.30
4757;DHT22;2392;52.578;13.426;2023-05-23T11:44:42;21.40;97.60
4757;DHT22;2392;52.578;13.426;2023-05-23T11:47:09;21.20;97.90
4757;DHT22;2392;52.578;13.426;2023-05-23T11:49:39;21.10;98.70
4757;DHT22;2392;52.578;13.426;2023-05-23T11:52:07;21.10;98.50
4757;DHT22;2392;52.578;13.426;2023-05-23T11:54:34;21.00;99.00
4757;DHT22;2392;52.578;13.426;2023-05-23T11:57:02;21.00;98.90
4757;DHT22;2392;52.578;13.426;2023-05-23T11:59:29;20.90;99.00
4757;DHT22;2392;52.578;13.426;2023-05-23T12:01:56;20.90;99.10
4757;DHT22;2392;52.578;13.426;2023-05-23T12:04:24;20.90;99.00
4757;DHT22;2392;52.578;13.426;2023-05-23T12:06:52;20.80;99.10
4757;DHT22;2392;52.578;13.426;2023-05-23T12:09:20;20.80;99.60
4757;DHT22;2392;52.578;13.426;2023-05-23T12:11:48;20.70;99.30
4757;DHT22;2392;52.578;13.426;2023-05-23T12:14:16;20.60;99.40
4757;DHT22;2392;52.578;13.426;2023-05-23T12:16:44;20.70;99.30
4757;DHT22;2392;52.578;13.426;2023-05-23T12:19:12;20.70;99.70
4757;DHT22;2392;52.578;13.426;2023-05-23T12:21:43;20.60;99.80
4757;DHT22;2392;52.578;13.426;2023-05-23T12:24:15;20.60;99.90
4757;DHT22;2392;52.578;13.426;2023-05-23T12:26:51;20.70;99.90
4757;DHT22;2392;52.578;13.426;2023-05-23T12:29:20;20.80;99.90
4757;DHT22;2392;52.578;13.426;2023-05-23T12:31:48;20.80;99.90
4757;DHT22;2392;52.578;13.426;2023-05-23T12:34:16;20.80;99.90
4757;DHT22;2392;52.578;13.426;2023-05-23T12:36:43;20.80;99.90
4757;DHT22;2392;52.578;13.426;2023-05-23T12:39:10;20.80;99.90
4757;DHT22;2392;52.578;13.426;2023-05-23T12:41:41;20.80;99.90
4757;DHT22;2392;52.578;13.426;2023-05-23T12:44:11;20.70;99.90
4757;DHT22;2392;52.578;13.426;2023-05-23T12:46:41;20.70;99.90
4757;DHT22;2392;52.578;13.426;2023-05-23T12:49:08;20.60;99.90
4757;DHT22;2392;52.578;13.426;2023-05-23T12:51:35;20.60;99.90
4757;DHT22;2392;52.578;13.426;2023-05-23T12:54:02;20.50;99.90
4757;DHT22;2392;52.578;13.426;2023-05-23T12:56:29;20.50;99.90
4757;DHT22;2392;52.578;13.426;2023-05-23T12:58:57;20.50;99.90
4757;DHT22;2392;52.578;13.426;2023-05-23T13:01:25;20.50;99.90
4757;DHT22;2392;52.578;13.426;2023-05-23T13:03:52;20.60;99.90
4757;DHT22;2392;52.578;13.426;2023-05-23T13:06:19;20.60;99.90
4757;DHT22;2392;52.578;13.426;2023-05-23T13:08:46;20.40;99.90
4757;DHT22;2392;52.578;13.426;2023-05-23T13:11:15;20.40;99.90
4757;DHT22;2392;52.578;13.426;2023-05-23T13:13:42;20.30;99.90
4757;DHT22;2392;52.578;13.426;2023-05-23T13:16:09;20.30;99.90
4757;DHT22;2392;52.578;13.426;2023-05-23T13:18:38;20.20;99.90
4757;DHT22;2392;52.578;13.426;2023-05-23T13:21:05;20.20;99.90
4757;DHT22;2392;52.578;13.426;2023-05-23T13:23:33;20.10;99.90
4757;DHT22;2392;52.578;13.426;2023-05-23T13:26:01;20.00;99.90
4757;DHT22;2392;52.578;13.426;2023-05-23T13:28:28;20.00;99.90
4757;DHT22;2392;52.578;13.426;2023-05-23T13:30:56;20.00;99.90
4757;DHT22;2392;52.578;13.426;2023-05-23T13:33:23;19.90;99.90
4757;DHT22;2392;52.578;13.426;2023-05-23T13:35:51;19.80;99.90
4757;DHT22;2392;52.578;13.426;2023-05-23T13:38:19;19.60;99.90
4757;DHT22;2392;52.578;13.426;2023-05-23T13:40:46;19.40;99.90
4757;DHT22;2392;52.578;13.426;2023-05-23T13:43:13;19.20;99.90
4757;DHT22;2392;52.578;13.426;2023-05-23T13:45:40;19.10;99.90
4757;DHT22;2392;52.578;13.426;2023-05-23T13:48:07;18.90;99.90
4757;DHT22;2392;52.578;13.426;2023-05-23T13:50:34;19.00;99.90
4757;DHT22;2392;52.578;13.426;2023-05-23T13:53:02;18.90;99.90
4757;DHT22;2392;52.578;13.426;2023-05-23T13:55:36;18.90;99.90
4757;DHT22;2392;52.578;13.426;2023-05-23T13:58:03;18.90;99.90
4757;DHT22;2392;52.578;13.426;2023-05-23T14:00:30;18.80;99.90
4757;DHT22;2392;52.578;13.426;2023-05-23T14:02:57;18.80;99.90
4757;DHT22;2392;52.578;13.426;2023-05-23T14:05:24;18.70;99.90
4757;DHT22;2392;52.578;13.426;2023-05-23T14:07:51;18.70;99.90
4757;DHT22;2392;52.578;13.426;2023-05-23T14:10:19;18.60;99.90
4757;DHT22;2392;52.578;13.426;2023-05-23T14:12:46;18.60;99.90
4757;DHT22;2392;52.578;13.426;2023-05-23T14:15:14;18.50;99.90
4757;DHT22;2392;52.578;13.426;2023-05-23T14:17:41;18.50;99.90
4757;DHT22;2392;52.578;13.426;2023-05-23T14:20:09;18.40;99.90
4757;DHT22;2392;52.578;13.426;2023-05-23T14:22:36;18.30;99.90
4757;DHT22;2392;52.578;13.426;2023-05-23T14:25:03;18.30;99.90
4757;DHT22;2392;52.578;13.426;2023-05-23T14:27:31;18.30;99.90
4757;DHT22;2392;52.578;13.426;2023-05-23T14:29:59;18.30;99.90
4757;DHT22;2392;52.578;13.426;2023-05-23T14:32:26;18.20;99.90
4757;DHT22;2392;52.578;13.426;2023-05-23T14:34:53;18.10;99.90
4757;DHT22;2392;52.578;13.426;2023-05-23T14:37:20;18.00;99.90
4757;DHT22;2392;52.578;13.426;2023-05-23T14:39:47;18.00;99.90
4757;DHT22;2392;52.578;13.426;2023-05-23T14:42:14;18.00;99.90
4757;DHT22;2392;52.578;13.426;2023-05-23T14:44:42;17.90;99.90
4757;DHT22;2392;52.578;13.426;2023-05-23T14:47:09;17.90;99.90
4757;DHT22;2392;52.578;13.426;2023-05-23T14:49:36;17.90;99.90
4757;DHT22;2392;52.578;13.426;2023-05-23T14:52:04;17.80;99.90
4757;DHT22;2392;52.578;13.426;2023-05-23T14:54:31;17.90;99.90
4757;DHT22;2392;52.578;13.426;2023-05-23T14:56:58;18.00;99.90
4757;DHT22;2392;52.578;13.426;2023-05-23T14:59:25;18.00;99.90
4757;DHT22;2392;52.578;13.426;2023-05-23T15:01:54;18.00;99.90
4757;DHT22;2392;52.578;13.426;2023-05-23T15:04:22;18.00;99.90
4757;DHT22;2392;52.578;13.426;2023-05-23T15:06:49;17.80;99.90
4757;DHT22;2392;52.578;13.426;2023-05-23T15:09:16;17.70;99.90
4757;DHT22;2392;52.578;13.426;2023-05-23T15:11:43;17.60;99.90
4757;DHT22;2392;52.578;13.426;2023-05-23T15:14:11;17.50;99.90
4757;DHT22;2392;52.578;13.426;2023-05-23T15:16:38;17.30;99.90
4757;DHT22;2392;52.578;13.426;2023-05-23T15:19:10;17.30;99.90
4757;DHT22;2392;52.578;13.426;2023-05-23T15:21:37;17.20;99.90
4757;DHT22;2392;52.578;13.426;2023-05-23T15:24:04;17.20;99.90
4757;DHT22;2392;52.578;13.426;2023-05-23T15:26:33;17.10;99.90
4757;DHT22;2392;52.578;13.426;2023-05-23T15:29:00;17.00;99.90
4757;DHT22;2392;52.578;13.426;2023-05-23T15:31:27;17.00;99.90
4757;DHT22;2392;52.578;13.426;2023-05-23T15:33:54;16.90;99.90
4757;DHT22;2392;52.578;13.426;2023-05-23T15:36:22;16.80;99.90
4757;DHT22;2392;52.578;13.426;2023-05-23T15:38:49;16.80;99.90
4757;DHT22;2392;52.578;13.426;2023-05-23T15:41:16;16.80;99.90
4757;DHT22;2392;52.578;13.426;2023-05-23T15:43:43;16.70;99.90
4757;DHT22;2392;52.578;13.426;2023-05-23T15:46:10;16.70;99.90
4757;DHT22;2392;52.578;13.426;2023-05-23T15:48:37;16.70;99.90
4757;DHT22;2392;52.578;13.426;2023-05-23T15:51:04;16.60;99.90
4757;DHT22;2392;52.578;13.426;2023-05-23T15:53:32;16.60;99.90
4757;DHT22;2392;52.578;13.426;2023-05-23T15:56:00;16.60;99.90
4757;DHT22;2392;52.578;13.426;2023-05-23T15:58:27;16.40;99.90
4757;DHT22;2392;52.578;13.426;2023-05-23T16:00:54;16.30;99.90
4757;DHT22;2392;52.578;13.426;2023-05-23T16:03:21;16.30;99.90